sensor_id;sensor_type;location;lat;lon;timestamp;temperature;humidity
62154;DHT22;48140;45.486;9.226;2023-05-10T00:02:13;15.40;99.90
62154;DHT22;48140;45.486;9.226;2023-05-10T00:04:38;15.40;99.90
62154;DHT22;48140;45.486;9.226;2023-05-10T00:07:04;15.40;99.90
62154;DHT22;48140;45.486;9.226;2023-05-10T00:09:29;15.30;99.90
62154;DHT22;48140;45.486;9.226;2023-05-10T00:11:55;15.30;99.90
62154;DHT22;48140;45.486;9.226;2023-05-10T00:14:23;15.30;99.90
62154;DHT22;48140;45.486;9.226;2023-05-10T00:16:49;15.30;99.90
62154;DHT22;48140;45.486;9.226;2023-05-10T00:19:15;15.20;99.90
62154;DHT22;48140;45.486;9.226;2023-05-10T00:21:41;15.20;99.90
62154;DHT22;48140;45.486;9.226;2023-05-10T00:24:11;15.20;99.90
62154;DHT22;48140;45.486;9.226;2023-05-10T00:26:37;15.20;99.90
62154;DHT22;48140;45.486;9.226;2023-05-10T00:29:03;15.20;99.90
62154;DHT22;48140;45.486;9.226;2023-05-10T00:31:28;15.20;99.90
62154;DHT22;48140;45.486;9.226;2023-05-10T00:33:56;15.30;99.90
62154;DHT22;48140;45.486;9.226;2023-05-10T00:36:22;15.20;99.90
62154;DHT22;48140;45.486;9.226;2023-05-10T00:38:47;15.30;99.90
62154;DHT22;48140;45.486;9.226;2023-05-10T00:41:13;15.30;99.90
62154;DHT22;48140;45.486;9.226;2023-05-10T00:43:38;15.20;99.90
62154;DHT22;48140;45.486;9.226;2023-05-10T00:46:04;15.10;99.90
62154;DHT22;48140;45.486;9.226;2023-05-10T00:48:31;15.10;99.90
62154;DHT22;48140;45.486;9.226;2023-05-10T00:51:01;15.10;99.90
62154;DHT22;48140;45.486;9.226;2023-05-10T00:53:27;15.00;99.90
62154;DHT22;48140;45.486;9.226;2023-05-10T00:55:54;15.00;99.90
62154;DHT22;48140;45.486;9.226;2023-05-10T00:58:20;15.10;99.90
62154;DHT22;48140;45.486;9.226;2023-05-10T03:37:06;14.00;99.90
62154;DHT22;48140;45.486;9.226;2023-05-10T03:39:33;14.10;99.90
62154;DHT22;48140;45.486;9.226;2023-05-10T03:42:00;14.10;99.90
62154;DHT22;48140;45.486;9.226;2023-05-10T03:44:27;14.20;99.90
62154;DHT22;48140;45.486;9.226;2023-05-10T03:46:57;14.00;99.90
62154;DHT22;48140;45.486;9.226;2023-05-10T03:49:24;14.10;99.90
62154;DHT22;48140;45.486;9.226;2023-05-10T03:51:52;14.10;99.90
62154;DHT22;48140;45.486;9.226;2023-05-10T03:54:22;14.00;99.90
62154;DHT22;48140;45.486;9.226;2023-05-10T03:56:48;14.00;99.90
62154;DHT22;48140;45.486;9.226;2023-05-10T03:59:16;14.00;99.90
62154;DHT22;48140;45.486;9.226;2023-05-10T04:01:42;14.00;99.90
62154;DHT22;48140;45.486;9.226;2023-05-10T04:04:07;14.00;99.90
62154;DHT22;48140;45.486;9.226;2023-05-10T04:06:34;13.90;99.90
62154;DHT22;48140;45.486;9.226;2023-05-10T04:09:00;14.10;99.90
62154;DHT22;48140;45.486;9.226;2023-05-10T04:11:29;14.00;99.90
62154;DHT22;48140;45.486;9.226;2023-05-10T04:13:54;14.00;99.90
62154;DHT22;48140;45.486;9.226;2023-05-10T04:16:20;14.00;99.90
62154;DHT22;48140;45.486;9.226;2023-05-10T04:18:46;14.00;99.90
62154;DHT22;48140;45.486;9.226;2023-05-10T04:21:12;14.00;99.90
62154;DHT22;48140;45.486;9.226;2023-05-10T04:23:41;13.60;99.90
62154;DHT22;48140;45.486;9.226;2023-05-10T04:26:07;13.90;99.90
62154;DHT22;48140;45.486;9.226;2023-05-10T06:27:13;14.30;99.90
62154;DHT22;48140;45.486;9.226;2023-05-10T06:29:55;14.30;99.90
62154;DHT22;48140;45.486;9.226;2023-05-10T06:32:27;14.30;99.90
62154;DHT22;48140;45.486;9.226;2023-05-10T06:34:54;14.30;99.90
62154;DHT22;48140;45.486;9.226;2023-05-10T06:37:23;14.40;99.90
62154;DHT22;48140;45.486;9.226;2023-05-10T06:39:51;14.30;99.90
62154;DHT22;48140;45.486;9.226;2023-05-10T06:42:21;14.30;99.90
62154;DHT22;48140;45.486;9.226;2023-05-10T06:44:47;14.30;99.90
62154;DHT22;48140;45.486;9.226;2023-05-10T06:47:25;14.40;99.90
62154;DHT22;48140;45.486;9.226;2023-05-10T06:49:51;14.30;99.90
62154;DHT22;48140;45.486;9.226;2023-05-10T06:52:17;14.30;99.90
62154;DHT22;48140;45.486;9.226;2023-05-10T06:54:52;14.20;99.90
62154;DHT22;48140;45.486;9.226;2023-05-10T06:57:18;14.20;99.90
62154;DHT22;48140;45.486;9.226;2023-05-10T06:59:49;14.20;99.90
62154;DHT22;48140;45.486;9.226;2023-05-10T07:05:10;14.10;99.90
62154;DHT22;48140;45.486;9.226;2023-05-10T07:07:36;14.20;99.90
62154;DHT22;48140;45.486;9.226;2023-05-10T07:10:08;14.40;99.90
62154;DHT22;48140;45.486;9.226;2023-05-10T07:15:42;14.50;99.90
62154;DHT22;48140;45.486;9.226;2023-05-10T07:18:11;14.40;99.90
62154;DHT22;48140;45.486;9.226;2023-05-10T07:20:45;14.50;99.90
62154;DHT22;48140;45.486;9.226;2023-05-10T07:23:15;14.50;99.90
62154;DHT22;48140;45.486;9.226;2023-05-10T07:29:11;14.30;99.90
62154;DHT22;48140;45.486;9.226;2023-05-10T07:32:12;14.30;99.90
62154;DHT22;48140;45.486;9.226;2023-05-10T07:35:33;14.30;99.90
62154;DHT22;48140;45.486;9.226;2023-05-10T07:38:10;14.40;99.90
62154;DHT22;48140;45.486;9.226;2023-05-10T07:40:42;14.40;99.90
62154;DHT22;48140;45.486;9.226;2023-05-10T07:43:11;14.50;99.90
62154;DHT22;48140;45.486;9.226;2023-05-10T07:45:37;14.50;99.90
62154;DHT22;48140;45.486;9.226;2023-05-10T07:48:09;14.50;99.90
62154;DHT22;48140;45.486;9.226;2023-05-10T07:50:46;14.60;99.90
62154;DHT22;48140;45.486;9.226;2023-05-10T07:53:18;14.70;99.90
62154;DHT22;48140;45.486;9.226;2023-05-10T07:55:58;14.80;99.90
62154;DHT22;48140;45.486;9.226;2023-05-10T07:58:34;14.90;99.90
62154;DHT22;48140;45.486;9.226;2023-05-10T08:01:00;14.90;99.90
62154;DHT22;48140;45.486;9.226;2023-05-10T08:06:22;15.00;99.90
62154;DHT22;48140;45.486;9.226;2023-05-10T08:08:48;15.00;99.90
62154;DHT22;48140;45.486;9.226;2023-05-10T08:11:19;15.00;99.90
62154;DHT22;48140;45.486;9.226;2023-05-10T08:13:46;15.00;99.90
62154;DHT22;48140;45.486;9.226;2023-05-10T08:16:12;15.00;99.90
62154;DHT22;48140;45.486;9.226;2023-05-10T08:18:38;14.90;99.90
62154;DHT22;48140;45.486;9.226;2023-05-10T08:21:05;15.10;99.90
62154;DHT22;48140;45.486;9.226;2023-05-10T08:23:31;15.10;99.90
62154;DHT22;48140;45.486;9.226;2023-05-10T08:25:57;15.20;99.90
62154;DHT22;48140;45.486;9.226;2023-05-10T08:28:23;15.30;99.90
62154;DHT22;48140;45.486;9.226;2023-05-10T08:30:50;15.40;99.90
62154;DHT22;48140;45.486;9.226;2023-05-10T08:33:17;15.60;99.90
62154;DHT22;48140;45.486;9.226;2023-05-10T08:35:44;15.60;99.90
62154;DHT22;48140;45.486;9.226;2023-05-10T08:38:10;15.60;99.90
62154;DHT22;48140;45.486;9.226;2023-05-10T08:40:42;15.80;99.90
62154;DHT22;48140;45.486;9.226;2023-05-10T08:43:11;15.90;99.90
62154;DHT22;48140;45.486;9.226;2023-05-10T08:45:51;16.10;99.90
62154;DHT22;48140;45.486;9.226;2023-05-10T08:48:19;16.30;99.90
62154;DHT22;48140;45.486;9.226;2023-05-10T08:50:47;16.60;99.90
62154;DHT22;48140;45.486;9.226;2023-05-10T08:53:24;16.90;99.90
62154;DHT22;48140;45.486;9.226;2023-05-10T08:55:52;17.00;99.90
62154;DHT22;48140;45.486;9.226;2023-05-10T08:58:21;17.10;99.90
62154;DHT22;48140;45.486;9.226;2023-05-10T09:00:49;17.20;99.90
62154;DHT22;48140;45.486;9.226;2023-05-10T09:03:18;17.30;99.90
62154;DHT22;48140;45.486;9.226;2023-05-10T09:05:43;17.30;99.90
62154;DHT22;48140;45.486;9.226;2023-05-10T09:08:11;17.30;99.90
62154;DHT22;48140;45.486;9.226;2023-05-10T09:10:52;17.20;99.90
62154;DHT22;48140;45.486;9.226;2023-05-10T09:13:34;17.20;99.90
62154;DHT22;48140;45.486;9.226;2023-05-10T09:16:03;17.10;99.90
62154;DHT22;48140;45.486;9.226;2023-05-10T09:22:09;16.90;99.90
62154;DHT22;48140;45.486;9.226;2023-05-10T09:24:42;17.00;99.90
62154;DHT22;48140;45.486;9.226;2023-05-10T09:38:10;17.20;99.80
62154;DHT22;48140;45.486;9.226;2023-05-10T09:41:21;17.10;99.00
62154;DHT22;48140;45.486;9.226;2023-05-10T09:47:17;17.10;99.90
62154;DHT22;48140;45.486;9.226;2023-05-10T09:49:48;17.10;98.70
62154;DHT22;48140;45.486;9.226;2023-05-10T11:39:54;16.10;99.90
62154;DHT22;48140;45.486;9.226;2023-05-10T11:52:41;16.40;99.70
62154;DHT22;48140;45.486;9.226;2023-05-10T11:55:28;16.30;98.80
62154;DHT22;48140;45.486;9.226;2023-05-10T12:29:59;16.20;99.10
62154;DHT22;48140;45.486;9.226;2023-05-10T12:47:13;17.50;96.70
62154;DHT22;48140;45.486;9.226;2023-05-10T13:18:57;18.90;91.70
62154;DHT22;48140;45.486;9.226;2023-05-10T13:22:06;19.00;91.80
62154;DHT22;48140;45.486;9.226;2023-05-10T13:24:55;19.10;92.50
62154;DHT22;48140;45.486;9.226;2023-05-10T13:27:24;19.20;92.00
62154;DHT22;48140;45.486;9.226;2023-05-10T13:43:19;18.70;93.00
62154;DHT22;48140;45.486;9.226;2023-05-10T13:45:45;18.60;92.60
62154;DHT22;48140;45.486;9.226;2023-05-10T13:48:20;18.50;93.10
62154;DHT22;48140;45.486;9.226;2023-05-10T13:53:58;18.30;93.80
62154;DHT22;48140;45.486;9.226;2023-05-10T13:56:30;18.40;93.60
62154;DHT22;48140;45.486;9.226;2023-05-10T13:58:57;18.40;92.70
62154;DHT22;48140;45.486;9.226;2023-05-10T14:01:24;18.30;94.10
62154;DHT22;48140;45.486;9.226;2023-05-10T14:04:04;18.40;94.10
62154;DHT22;48140;45.486;9.226;2023-05-10T16:53:26;18.20;93.90
62154;DHT22;48140;45.486;9.226;2023-05-10T17:33:38;17.70;94.40
62154;DHT22;48140;45.486;9.226;2023-05-10T20:02:18;15.70;99.90
62154;DHT22;48140;45.486;9.226;2023-05-10T20:04:47;15.60;99.90
